Glenwood, MN

4:31 AM CST on November 19, 2017 (GMT -0600)
Glenwood Municipal

Weather History for KGHW - January, 2012

Change the Weather History Date:

Sunday, January 1, 2012

  Actual Average Record
Temperature  
Mean Temperature 22 °F -  
Max Temperature 26 °F 20 °F 43 °F (1964)
Min Temperature 15 °F 0 °F -32 °F (1974)
Degree Days  
Heating Degree Days 44    
Moisture  
Dew Point 15 °F    
Average Humidity 73    
Maximum Humidity 80    
Minimum Humidity 68    
Precipitation  
Precipitation 0.00 in - - ()
Sea Level Pressure  
Sea Level Pressure 30.12 in    
Wind  
Wind Speed 27 mph (WNW)    
Max Wind Speed 34 mph    
Max Gust Speed 45 mph    
Visibility 8 miles    
Events Snow    
Averages and records for this station are not official NWS values.
T = Trace of Precipitation, MM = Missing Value Source: NWS Daily Summary

Daily Weather History Graph

Daily Weather History Graph

Search for Another Location

Airport or City:

Trip Planner

Search our weather history database for the weather conditions in past years. The results will help you decide how hot, cold, wet, or windy it might be!

Date:

Astronomy

Jan. 01, 2012 Rise Set
Actual Time 8:01 AM CST 4:47 PM CST
Civil Twilight 7:27 AM CST 5:21 PM CST
Nautical Twilight 6:50 AM CST 5:59 PM CST
Astronomical Twilight 6:14 AM CST 6:35 PM CST
Moon 11:47 AM CST (1/1) 12:45 AM CST (1/1)
Length of Visible Light 9h 54m
Length of Day
8h 45m
First Quarter, 55% of the Moon is Illuminated
Jan 1
First Quarter
Jan 9
Full
Jan 16
Last Quarter
Jan 23
New
Jan 30
First Quarter

Hourly Weather History & Observations

Time (CST) Temp. Windchill Dew Point Humidity Pressure Visibility Wind Dir Wind Speed Gust Speed Precip Events Conditions
12:13 AM 26.6 °F 10.6 °F 21.2 °F 80% 29.90 in 10.0 mi NW 28.8 mph 36.8 mph N/A   Overcast
12:34 AM 26.6 °F 11.4 °F 19.4 °F 74% 29.91 in 10.0 mi NW 25.3 mph 40.3 mph N/A   Overcast
12:54 AM 26.6 °F 10.6 °F 19.4 °F 74% 29.91 in 10.0 mi NW 28.8 mph 36.8 mph N/A   Overcast
1:14 AM 26.6 °F 11.7 °F 19.4 °F 74% 29.92 in 10.0 mi NW 24.2 mph 38.0 mph N/A   Overcast
1:34 AM 26.6 °F 11.4 °F 19.4 °F 74% 29.93 in 10.0 mi NW 25.3 mph 39.1 mph N/A   Overcast
1:54 AM 26.6 °F 12.4 °F 19.4 °F 74% 29.93 in 10.0 mi NW 21.9 mph 32.2 mph N/A   Overcast
2:14 AM 26.6 °F 11.7 °F 19.4 °F 74% 29.93 in 10.0 mi NW 24.2 mph 38.0 mph N/A   Overcast
2:34 AM 26.6 °F 10.8 °F 19.4 °F 74% 29.94 in 10.0 mi WNW 27.6 mph 34.5 mph N/A   Overcast
2:54 AM 26.6 °F 11.4 °F 17.6 °F 69% 29.95 in 10.0 mi WNW 25.3 mph 41.4 mph N/A   Mostly Cloudy
3:14 AM 26.6 °F 10.8 °F 17.6 °F 69% 29.95 in 10.0 mi WNW 27.6 mph 36.8 mph N/A   Overcast
3:34 AM 26.6 °F 12.0 °F 19.4 °F 74% 29.95 in 10.0 mi WNW 23.0 mph 32.2 mph N/A   Mostly Cloudy
3:53 AM 24.8 °F 8.7 °F 17.6 °F 74% 29.95 in 10.0 mi WNW 26.5 mph 41.4 mph N/A   Scattered Clouds
4:14 AM 24.8 °F 7.6 °F 15.8 °F 69% 29.96 in 10.0 mi WNW 31.1 mph 43.7 mph N/A   Clear
4:34 AM 24.8 °F 9.6 °F 15.8 °F 69% 29.96 in 10.0 mi WNW 23.0 mph 35.7 mph N/A   Clear
4:54 AM 23.0 °F 6.0 °F 15.8 °F 74% 29.96 in 10.0 mi WNW 27.6 mph 34.5 mph N/A   Clear
5:14 AM 23.0 °F 7.6 °F 15.8 °F 74% 29.96 in 10.0 mi WNW 21.9 mph 32.2 mph N/A   Scattered Clouds
5:34 AM 24.8 °F 9.3 °F 15.8 °F 69% 29.97 in 10.0 mi WNW 24.2 mph 33.4 mph N/A   Mostly Cloudy
6:14 AM 24.8 °F 8.1 °F 15.8 °F 69% 29.98 in 10.0 mi WNW 28.8 mph 35.7 mph N/A   Overcast
6:34 AM 23.0 °F 5.4 °F 15.8 °F 74% 29.98 in 10.0 mi WNW 29.9 mph 35.7 mph N/A   Overcast
6:54 AM 23.0 °F 6.0 °F 15.8 °F 74% 29.99 in 10.0 mi WNW 27.6 mph 36.8 mph N/A   Overcast
7:14 AM 23.0 °F 6.3 °F 15.8 °F 74% 29.99 in 10.0 mi WNW 26.5 mph 34.5 mph N/A   Overcast
7:34 AM 23.0 °F 6.6 °F 15.8 °F 74% 30.00 in 10.0 mi WNW 25.3 mph 32.2 mph N/A   Overcast
7:54 AM 23.0 °F 6.0 °F 15.8 °F 74% 30.00 in 10.0 mi WNW 27.6 mph 36.8 mph N/A   Mostly Cloudy
8:13 AM 23.0 °F 5.4 °F 15.8 °F 74% 30.01 in 10.0 mi WNW 29.9 mph 35.7 mph N/A   Overcast
8:34 AM 23.0 °F 6.3 °F 15.8 °F 74% 30.02 in 10.0 mi WNW 26.5 mph 35.7 mph N/A   Overcast
8:54 AM 23.0 °F 5.7 °F 15.8 °F 74% 30.03 in 10.0 mi WNW 28.8 mph 34.5 mph N/A   Overcast
9:14 AM 23.0 °F 5.1 °F 15.8 °F 74% 30.04 in 10.0 mi WNW 31.1 mph 40.3 mph N/A   Overcast
9:34 AM 24.8 °F 7.9 °F 15.8 °F 69% 30.04 in 10.0 mi WNW 29.9 mph 44.9 mph N/A Snow Light Snow
9:54 AM 24.8 °F 7.9 °F 15.8 °F 69% 30.05 in 7.0 mi WNW 29.9 mph 41.4 mph N/A Snow Light Snow
10:14 AM 24.8 °F 7.3 °F 15.8 °F 69% 30.06 in 7.0 mi WNW 32.2 mph 40.3 mph N/A Snow Light Snow
10:33 AM 24.8 °F 7.3 °F 15.8 °F 69% 30.06 in 7.0 mi WNW 32.2 mph 41.4 mph N/A Snow Light Snow
10:54 AM 24.8 °F 7.3 °F 17.6 °F 74% 30.07 in 7.0 mi WNW 32.2 mph 42.6 mph N/A Snow Light Snow
11:14 AM 24.8 °F 7.3 °F 17.6 °F 74% 30.07 in 5.0 mi WNW 32.2 mph 40.3 mph N/A Snow Light Snow
11:54 AM 24.8 °F 9.0 °F 17.6 °F 74% 30.09 in 7.0 mi WNW 25.3 mph 38.0 mph N/A Snow Light Snow
12:14 PM 24.8 °F 7.9 °F 17.6 °F 74% 30.10 in 10.0 mi WNW 29.9 mph 43.7 mph N/A   Overcast
12:33 PM 24.8 °F 8.1 °F 17.6 °F 74% 30.10 in 4.0 mi WNW 28.8 mph 38.0 mph N/A Snow Light Snow
12:54 PM 24.8 °F 9.6 °F 19.4 °F 80% 30.11 in 1.0 mi WNW 23.0 mph 32.2 mph N/A Snow Light Snow
1:14 PM 24.8 °F 6.8 °F 15.8 °F 69% 30.12 in 7.0 mi WNW 34.5 mph 43.7 mph N/A Snow Light Snow
1:34 PM 23.0 °F 6.3 °F 15.8 °F 74% 30.13 in 4.0 mi WNW 26.5 mph 38.0 mph N/A Snow Light Snow
1:53 PM 23.0 °F 6.0 °F 15.8 °F 74% 30.14 in 10.0 mi WNW 27.6 mph 40.3 mph N/A Snow Light Snow
2:14 PM 23.0 °F 4.9 °F 14.0 °F 68% 30.16 in 10.0 mi WNW 32.2 mph 43.7 mph N/A   Overcast
2:34 PM 21.2 °F 3.3 °F 14.0 °F 74% 30.18 in 7.0 mi NW 28.8 mph 42.6 mph N/A Snow Light Snow
3:14 PM 21.2 °F 4.5 °F 14.0 °F 74% 30.21 in 3.0 mi NW 24.2 mph 40.3 mph N/A Snow Light Snow
3:34 PM 21.2 °F 2.7 °F 12.2 °F 68% 30.22 in 7.0 mi NW 31.1 mph 39.1 mph N/A Snow Light Snow
4:13 PM 19.4 °F 1.4 °F 14.0 °F 80% 30.26 in 3.0 mi WNW 26.5 mph 33.4 mph N/A Snow Light Snow
4:33 PM 19.4 °F 0.5 °F 12.2 °F 74% 30.27 in 3.0 mi WNW 29.9 mph 38.0 mph N/A Snow Light Snow
4:54 PM 19.4 °F 3.6 °F 14.0 °F 80% 30.28 in 1.5 mi NW 19.6 mph 34.5 mph N/A Snow Light Snow
5:14 PM 19.4 °F 2.1 °F 10.4 °F 68% 30.29 in 10.0 mi NW 24.2 mph 38.0 mph N/A Snow Light Snow
5:33 PM 17.6 °F -1.6 °F 12.2 °F 79% 30.30 in 7.0 mi WNW 28.8 mph 34.5 mph N/A Snow Light Snow
5:53 PM 17.6 °F -1.6 °F 10.4 °F 73% 30.31 in 7.0 mi NW 28.8 mph 39.1 mph N/A Snow Light Snow
6:14 PM 17.6 °F -1.3 °F 10.4 °F 73% 30.32 in 10.0 mi WNW 27.6 mph 34.5 mph N/A Snow Light Snow
6:33 PM 17.6 °F -1.6 °F 8.6 °F 68% 30.32 in 10.0 mi WNW 28.8 mph 36.8 mph N/A Snow Light Snow
6:54 PM 17.6 °F -1.3 °F 8.6 °F 68% 30.33 in 7.0 mi WNW 27.6 mph 40.3 mph N/A Snow Light Snow
7:14 PM 17.6 °F -0.6 °F 10.4 °F 73% 30.34 in 5.0 mi WNW 25.3 mph 34.5 mph N/A Snow Light Snow
7:34 PM 17.6 °F 0.1 °F 10.4 °F 73% 30.34 in 7.0 mi NW 23.0 mph 35.7 mph N/A Snow Light Snow
7:53 PM 17.6 °F -1.3 °F 10.4 °F 73% 30.35 in 10.0 mi NW 27.6 mph 34.5 mph N/A Snow Light Snow
8:13 PM 17.6 °F 0.1 °F 10.4 °F 73% 30.35 in 10.0 mi NW 23.0 mph 31.1 mph N/A Snow Light Snow
8:33 PM 17.6 °F 0.9 °F 10.4 °F 73% 30.34 in 7.0 mi NW 20.7 mph 29.9 mph N/A Snow Light Snow
9:14 PM 17.6 °F 0.1 °F 10.4 °F 73% 30.35 in 10.0 mi NW 23.0 mph 27.6 mph N/A Snow Light Snow
9:33 PM 17.6 °F 0.5 °F 10.4 °F 73% 30.35 in 5.0 mi NW 21.9 mph 41.4 mph N/A Snow Light Snow
9:54 PM 17.6 °F -0.6 °F 10.4 °F 73% 30.35 in 7.0 mi NW 25.3 mph 34.5 mph N/A Snow Light Snow
10:13 PM 17.6 °F -1.0 °F 8.6 °F 68% 30.35 in 10.0 mi NW 26.5 mph 33.4 mph N/A Snow Light Snow
10:34 PM 17.6 °F 1.7 °F 8.6 °F 68% 30.36 in 10.0 mi NW 18.4 mph 27.6 mph N/A Snow Light Snow
10:53 PM 17.6 °F 0.5 °F 10.4 °F 73% 30.36 in 10.0 mi WNW 21.9 mph 31.1 mph N/A   Mostly Cloudy
11:34 PM 15.8 °F -1.9 °F 10.4 °F 79% 30.36 in 10.0 mi NW 21.9 mph 29.9 mph N/A   Mostly Cloudy
11:53 PM 15.8 °F -0.6 °F 8.6 °F 73% 30.36 in 10.0 mi NW 18.4 mph 28.8 mph N/A   Mostly Cloudy